sensor_id;sensor_type;location;lat;lon;timestamp;temperature;humidity
13322;DHT22;6730;46.248;6.930;2022-10-17T00:00:59;15.80;99.90
13322;DHT22;6730;46.248;6.930;2022-10-17T00:03:25;15.70;99.90
13322;DHT22;6730;46.248;6.930;2022-10-17T00:05:50;15.60;99.90
13322;DHT22;6730;46.248;6.930;2022-10-17T00:08:17;15.50;99.90
13322;DHT22;6730;46.248;6.930;2022-10-17T00:10:43;15.50;99.90
13322;DHT22;6730;46.248;6.930;2022-10-17T00:13:09;15.60;99.90
13322;DHT22;6730;46.248;6.930;2022-10-17T00:15:36;15.50;99.90
13322;DHT22;6730;46.248;6.930;2022-10-17T00:18:02;15.60;99.90
13322;DHT22;6730;46.248;6.930;2022-10-17T00:20:28;15.70;99.90
13322;DHT22;6730;46.248;6.930;2022-10-17T00:22:55;15.80;99.90
13322;DHT22;6730;46.248;6.930;2022-10-17T00:25:21;15.70;99.90
13322;DHT22;6730;46.248;6.930;2022-10-17T00:27:47;15.70;99.90
13322;DHT22;6730;46.248;6.930;2022-10-17T00:30:14;15.70;99.90
13322;DHT22;6730;46.248;6.930;2022-10-17T00:32:40;15.60;99.90
13322;DHT22;6730;46.248;6.930;2022-10-17T00:35:07;15.70;99.90
13322;DHT22;6730;46.248;6.930;2022-10-17T00:37:34;15.70;99.90
13322;DHT22;6730;46.248;6.930;2022-10-17T00:40:00;15.80;99.90
13322;DHT22;6730;46.248;6.930;2022-10-17T00:42:26;15.90;99.90
13322;DHT22;6730;46.248;6.930;2022-10-17T00:47:29;15.90;99.90
13322;DHT22;6730;46.248;6.930;2022-10-17T00:49:55;15.90;99.90
13322;DHT22;6730;46.248;6.930;2022-10-17T00:52:24;15.70;99.90
13322;DHT22;6730;46.248;6.930;2022-10-17T00:54:55;15.80;99.90
13322;DHT22;6730;46.248;6.930;2022-10-17T00:57:21;15.70;99.90
13322;DHT22;6730;46.248;6.930;2022-10-17T00:59:51;15.80;99.90
13322;DHT22;6730;46.248;6.930;2022-10-17T01:02:20;16.00;99.90
13322;DHT22;6730;46.248;6.930;2022-10-17T01:04:49;16.00;99.90
13322;DHT22;6730;46.248;6.930;2022-10-17T01:07:15;15.80;99.90
13322;DHT22;6730;46.248;6.930;2022-10-17T01:09:42;15.50;99.90
13322;DHT22;6730;46.248;6.930;2022-10-17T01:12:25;15.50;99.90
13322;DHT22;6730;46.248;6.930;2022-10-17T01:28:17;15.50;99.90
13322;DHT22;6730;46.248;6.930;2022-10-17T01:36:33;15.40;99.90
13322;DHT22;6730;46.248;6.930;2022-10-17T01:44:56;15.20;99.90
13322;DHT22;6730;46.248;6.930;2022-10-17T01:47:26;15.20;99.90
13322;DHT22;6730;46.248;6.930;2022-10-17T01:49:57;15.20;99.90
13322;DHT22;6730;46.248;6.930;2022-10-17T01:52:27;15.10;99.90
13322;DHT22;6730;46.248;6.930;2022-10-17T01:57:41;15.20;99.90
13322;DHT22;6730;46.248;6.930;2022-10-17T02:00:13;15.20;99.90
13322;DHT22;6730;46.248;6.930;2022-10-17T02:02:41;15.10;99.90
13322;DHT22;6730;46.248;6.930;2022-10-17T02:05:09;15.10;99.90
13322;DHT22;6730;46.248;6.930;2022-10-17T02:07:40;15.10;99.90
13322;DHT22;6730;46.248;6.930;2022-10-17T02:10:11;15.00;99.90
13322;DHT22;6730;46.248;6.930;2022-10-17T02:12:53;15.00;99.90
13322;DHT22;6730;46.248;6.930;2022-10-17T02:15:41;15.10;99.90
13322;DHT22;6730;46.248;6.930;2022-10-17T02:21:09;15.20;99.90
13322;DHT22;6730;46.248;6.930;2022-10-17T02:26:55;15.20;99.90
13322;DHT22;6730;46.248;6.930;2022-10-17T02:29:26;15.00;99.90
13322;DHT22;6730;46.248;6.930;2022-10-17T02:34:41;15.10;99.90
13322;DHT22;6730;46.248;6.930;2022-10-17T02:37:09;15.30;99.90
13322;DHT22;6730;46.248;6.930;2022-10-17T02:39:37;15.20;99.90
13322;DHT22;6730;46.248;6.930;2022-10-17T02:42:06;15.10;99.90
13322;DHT22;6730;46.248;6.930;2022-10-17T02:44:34;14.90;99.90
13322;DHT22;6730;46.248;6.930;2022-10-17T02:49:57;14.90;99.90
13322;DHT22;6730;46.248;6.930;2022-10-17T02:55:15;14.90;99.90
13322;DHT22;6730;46.248;6.930;2022-10-17T02:57:51;14.90;99.90
13322;DHT22;6730;46.248;6.930;2022-10-17T03:00:19;15.10;99.90
13322;DHT22;6730;46.248;6.930;2022-10-17T03:02:47;15.20;99.90
13322;DHT22;6730;46.248;6.930;2022-10-17T03:05:20;15.10;99.90
13322;DHT22;6730;46.248;6.930;2022-10-17T03:07:46;14.90;99.90
13322;DHT22;6730;46.248;6.930;2022-10-17T03:10:12;14.80;99.90
13322;DHT22;6730;46.248;6.930;2022-10-17T03:12:37;14.90;99.90
13322;DHT22;6730;46.248;6.930;2022-10-17T03:15:04;14.90;99.90
13322;DHT22;6730;46.248;6.930;2022-10-17T03:17:30;14.90;99.90
13322;DHT22;6730;46.248;6.930;2022-10-17T03:19:56;15.00;99.90
13322;DHT22;6730;46.248;6.930;2022-10-17T03:22:22;15.00;99.90
13322;DHT22;6730;46.248;6.930;2022-10-17T03:24:48;15.00;99.90
13322;DHT22;6730;46.248;6.930;2022-10-17T03:27:13;15.00;99.90
13322;DHT22;6730;46.248;6.930;2022-10-17T03:29:39;15.00;99.90
13322;DHT22;6730;46.248;6.930;2022-10-17T03:32:05;15.00;99.90
13322;DHT22;6730;46.248;6.930;2022-10-17T03:34:31;14.90;99.90
13322;DHT22;6730;46.248;6.930;2022-10-17T03:36:56;14.90;99.90
13322;DHT22;6730;46.248;6.930;2022-10-17T03:39:22;14.80;99.90
13322;DHT22;6730;46.248;6.930;2022-10-17T03:41:47;14.70;99.90
13322;DHT22;6730;46.248;6.930;2022-10-17T03:44:13;14.70;99.90
13322;DHT22;6730;46.248;6.930;2022-10-17T03:46:39;14.80;99.90
13322;DHT22;6730;46.248;6.930;2022-10-17T03:49:04;14.90;99.90
13322;DHT22;6730;46.248;6.930;2022-10-17T03:51:32;14.80;99.90
13322;DHT22;6730;46.248;6.930;2022-10-17T03:53:59;14.70;99.90
13322;DHT22;6730;46.248;6.930;2022-10-17T03:56:25;14.90;99.90
13322;DHT22;6730;46.248;6.930;2022-10-17T03:58:51;14.80;99.90
13322;DHT22;6730;46.248;6.930;2022-10-17T04:01:17;14.70;99.90
13322;DHT22;6730;46.248;6.930;2022-10-17T04:03:47;14.60;99.90
13322;DHT22;6730;46.248;6.930;2022-10-17T04:06:13;14.70;99.90
13322;DHT22;6730;46.248;6.930;2022-10-17T04:08:38;14.80;99.90
13322;DHT22;6730;46.248;6.930;2022-10-17T04:11:06;14.80;99.90
13322;DHT22;6730;46.248;6.930;2022-10-17T04:13:33;14.90;99.90
13322;DHT22;6730;46.248;6.930;2022-10-17T04:16:00;15.00;99.90
13322;DHT22;6730;46.248;6.930;2022-10-17T04:18:26;15.20;99.90
13322;DHT22;6730;46.248;6.930;2022-10-17T04:20:52;15.40;99.90
13322;DHT22;6730;46.248;6.930;2022-10-17T04:23:18;15.40;99.90
13322;DHT22;6730;46.248;6.930;2022-10-17T04:25:43;15.10;99.90
13322;DHT22;6730;46.248;6.930;2022-10-17T04:28:09;14.90;99.90
13322;DHT22;6730;46.248;6.930;2022-10-17T04:30:35;14.90;99.90
13322;DHT22;6730;46.248;6.930;2022-10-17T04:33:01;14.70;99.90
13322;DHT22;6730;46.248;6.930;2022-10-17T04:35:26;14.60;99.90
13322;DHT22;6730;46.248;6.930;2022-10-17T04:37:52;14.60;99.90
13322;DHT22;6730;46.248;6.930;2022-10-17T04:40:18;14.50;99.90
13322;DHT22;6730;46.248;6.930;2022-10-17T04:42:45;14.50;99.90
13322;DHT22;6730;46.248;6.930;2022-10-17T04:45:11;14.50;99.90
13322;DHT22;6730;46.248;6.930;2022-10-17T04:47:36;14.60;99.90
13322;DHT22;6730;46.248;6.930;2022-10-17T04:50:03;14.60;99.90
13322;DHT22;6730;46.248;6.930;2022-10-17T04:52:29;14.70;99.90
13322;DHT22;6730;46.248;6.930;2022-10-17T04:54:54;14.70;99.90
13322;DHT22;6730;46.248;6.930;2022-10-17T04:57:20;14.80;99.90
13322;DHT22;6730;46.248;6.930;2022-10-17T04:59:46;14.60;99.90
13322;DHT22;6730;46.248;6.930;2022-10-17T05:02:12;14.50;99.90
13322;DHT22;6730;46.248;6.930;2022-10-17T05:04:37;14.40;99.90
13322;DHT22;6730;46.248;6.930;2022-10-17T05:07:03;14.50;99.90
13322;DHT22;6730;46.248;6.930;2022-10-17T05:09:29;14.50;99.90
13322;DHT22;6730;46.248;6.930;2022-10-17T05:11:55;14.50;99.90
13322;DHT22;6730;46.248;6.930;2022-10-17T05:14:20;14.50;99.90
13322;DHT22;6730;46.248;6.930;2022-10-17T05:16:46;14.50;99.90
13322;DHT22;6730;46.248;6.930;2022-10-17T05:19:12;14.60;99.90
13322;DHT22;6730;46.248;6.930;2022-10-17T05:21:37;14.60;99.90
13322;DHT22;6730;46.248;6.930;2022-10-17T05:24:07;14.60;99.90
13322;DHT22;6730;46.248;6.930;2022-10-17T05:26:33;14.40;99.90
13322;DHT22;6730;46.248;6.930;2022-10-17T05:29:00;14.50;99.90
13322;DHT22;6730;46.248;6.930;2022-10-17T05:31:30;14.60;99.90
13322;DHT22;6730;46.248;6.930;2022-10-17T05:34:00;14.50;99.90
13322;DHT22;6730;46.248;6.930;2022-10-17T05:36:26;14.50;99.90
13322;DHT22;6730;46.248;6.930;2022-10-17T05:38:52;14.50;99.90
13322;DHT22;6730;46.248;6.930;2022-10-17T05:41:18;14.40;99.90
13322;DHT22;6730;46.248;6.930;2022-10-17T05:43:45;14.30;99.90
13322;DHT22;6730;46.248;6.930;2022-10-17T05:46:10;14.60;99.90
13322;DHT22;6730;46.248;6.930;2022-10-17T05:48:36;14.80;99.90
13322;DHT22;6730;46.248;6.930;2022-10-17T05:51:07;14.60;99.90
13322;DHT22;6730;46.248;6.930;2022-10-17T05:53:35;14.50;99.90
13322;DHT22;6730;46.248;6.930;2022-10-17T05:56:03;14.80;99.90
13322;DHT22;6730;46.248;6.930;2022-10-17T05:58:29;14.80;99.90
13322;DHT22;6730;46.248;6.930;2022-10-17T06:00:59;14.70;99.90
13322;DHT22;6730;46.248;6.930;2022-10-17T06:03:25;14.70;99.90
13322;DHT22;6730;46.248;6.930;2022-10-17T06:05:51;14.60;99.90
13322;DHT22;6730;46.248;6.930;2022-10-17T06:08:17;14.50;99.90
13322;DHT22;6730;46.248;6.930;2022-10-17T06:10:49;14.60;99.90
13322;DHT22;6730;46.248;6.930;2022-10-17T06:13:18;14.80;99.90
13322;DHT22;6730;46.248;6.930;2022-10-17T06:15:44;15.20;99.90
13322;DHT22;6730;46.248;6.930;2022-10-17T06:18:10;15.30;99.90
13322;DHT22;6730;46.248;6.930;2022-10-17T06:20:35;15.30;99.90
13322;DHT22;6730;46.248;6.930;2022-10-17T06:23:01;15.20;99.90
13322;DHT22;6730;46.248;6.930;2022-10-17T06:25:27;15.10;99.90
13322;DHT22;6730;46.248;6.930;2022-10-17T06:27:54;15.00;99.90
13322;DHT22;6730;46.248;6.930;2022-10-17T06:30:20;15.10;99.90
13322;DHT22;6730;46.248;6.930;2022-10-17T06:32:45;15.20;99.90
13322;DHT22;6730;46.248;6.930;2022-10-17T06:35:11;15.30;99.90
13322;DHT22;6730;46.248;6.930;2022-10-17T06:37:37;15.20;99.90
13322;DHT22;6730;46.248;6.930;2022-10-17T06:40:03;14.90;99.90
13322;DHT22;6730;46.248;6.930;2022-10-17T06:42:30;14.60;99.90
13322;DHT22;6730;46.248;6.930;2022-10-17T06:44:55;14.80;99.90
13322;DHT22;6730;46.248;6.930;2022-10-17T06:47:21;15.00;99.90
13322;DHT22;6730;46.248;6.930;2022-10-17T06:49:47;15.00;99.90
13322;DHT22;6730;46.248;6.930;2022-10-17T06:52:12;14.90;99.90
13322;DHT22;6730;46.248;6.930;2022-10-17T06:54:39;15.20;99.90
13322;DHT22;6730;46.248;6.930;2022-10-17T06:57:04;15.70;99.90
13322;DHT22;6730;46.248;6.930;2022-10-17T06:59:30;16.10;99.90
13322;DHT22;6730;46.248;6.930;2022-10-17T07:01:55;16.80;99.90
13322;DHT22;6730;46.248;6.930;2022-10-17T07:04:21;17.30;99.90
13322;DHT22;6730;46.248;6.930;2022-10-17T07:06:47;17.30;99.90
13322;DHT22;6730;46.248;6.930;2022-10-17T07:09:12;17.90;99.90
13322;DHT22;6730;46.248;6.930;2022-10-17T07:11:38;18.70;99.90
13322;DHT22;6730;46.248;6.930;2022-10-17T07:14:04;19.40;99.90
13322;DHT22;6730;46.248;6.930;2022-10-17T07:16:30;19.50;99.90
13322;DHT22;6730;46.248;6.930;2022-10-17T07:18:56;19.40;99.90
13322;DHT22;6730;46.248;6.930;2022-10-17T07:21:22;19.30;99.90
13322;DHT22;6730;46.248;6.930;2022-10-17T07:23:47;18.40;99.90
13322;DHT22;6730;46.248;6.930;2022-10-17T07:26:16;17.70;99.90
13322;DHT22;6730;46.248;6.930;2022-10-17T07:28:44;17.70;99.90
13322;DHT22;6730;46.248;6.930;2022-10-17T07:31:12;18.50;99.90
13322;DHT22;6730;46.248;6.930;2022-10-17T07:33:39;19.70;99.90
13322;DHT22;6730;46.248;6.930;2022-10-17T07:36:05;21.00;99.90
13322;DHT22;6730;46.248;6.930;2022-10-17T07:38:32;21.60;99.90
13322;DHT22;6730;46.248;6.930;2022-10-17T07:40:59;21.70;99.90
13322;DHT22;6730;46.248;6.930;2022-10-17T07:43:26;20.80;99.90
13322;DHT22;6730;46.248;6.930;2022-10-17T07:45:53;20.90;99.90
13322;DHT22;6730;46.248;6.930;2022-10-17T07:48:19;21.00;99.90
13322;DHT22;6730;46.248;6.930;2022-10-17T07:50:45;21.00;99.10
13322;DHT22;6730;46.248;6.930;2022-10-17T07:53:11;21.30;99.90
13322;DHT22;6730;46.248;6.930;2022-10-17T07:55:38;21.40;99.90
13322;DHT22;6730;46.248;6.930;2022-10-17T07:58:03;21.70;99.90
13322;DHT22;6730;46.248;6.930;2022-10-17T08:00:29;22.30;99.50
13322;DHT22;6730;46.248;6.930;2022-10-17T08:02:55;22.90;99.90
13322;DHT22;6730;46.248;6.930;2022-10-17T08:05:20;23.50;99.60
13322;DHT22;6730;46.248;6.930;2022-10-17T08:07:46;23.60;98.80
13322;DHT22;6730;46.248;6.930;2022-10-17T08:10:13;24.00;97.70
13322;DHT22;6730;46.248;6.930;2022-10-17T08:12:39;23.90;98.60
13322;DHT22;6730;46.248;6.930;2022-10-17T08:15:06;23.40;98.10
13322;DHT22;6730;46.248;6.930;2022-10-17T08:17:36;22.90;98.00
13322;DHT22;6730;46.248;6.930;2022-10-17T08:20:04;23.00;99.20
13322;DHT22;6730;46.248;6.930;2022-10-17T08:22:31;23.30;98.70
13322;DHT22;6730;46.248;6.930;2022-10-17T08:24:57;23.00;97.70
13322;DHT22;6730;46.248;6.930;2022-10-17T08:27:22;23.20;98.00
13322;DHT22;6730;46.248;6.930;2022-10-17T08:29:50;23.70;97.40
13322;DHT22;6730;46.248;6.930;2022-10-17T08:32:24;24.10;97.70
13322;DHT22;6730;46.248;6.930;2022-10-17T08:34:54;23.60;97.50
13322;DHT22;6730;46.248;6.930;2022-10-17T08:37:21;23.60;96.90
13322;DHT22;6730;46.248;6.930;2022-10-17T08:39:47;23.00;97.80
13322;DHT22;6730;46.248;6.930;2022-10-17T08:42:44;22.80;98.80
13322;DHT22;6730;46.248;6.930;2022-10-17T08:48:16;23.30;97.90
13322;DHT22;6730;46.248;6.930;2022-10-17T08:50:50;22.80;96.80
13322;DHT22;6730;46.248;6.930;2022-10-17T08:53:37;22.00;98.50
13322;DHT22;6730;46.248;6.930;2022-10-17T08:56:29;22.40;99.00
13322;DHT22;6730;46.248;6.930;2022-10-17T08:58:57;22.90;98.00
13322;DHT22;6730;46.248;6.930;2022-10-17T09:04:13;22.70;98.40
13322;DHT22;6730;46.248;6.930;2022-10-17T09:06:58;22.90;98.40
13322;DHT22;6730;46.248;6.930;2022-10-17T09:12:16;22.40;98.20
13322;DHT22;6730;46.248;6.930;2022-10-17T09:20:32;24.00;97.80
13322;DHT22;6730;46.248;6.930;2022-10-17T09:23:11;23.90;97.20
13322;DHT22;6730;46.248;6.930;2022-10-17T09:25:46;22.70;98.30
13322;DHT22;6730;46.248;6.930;2022-10-17T09:28:18;22.30;99.00
13322;DHT22;6730;46.248;6.930;2022-10-17T09:31:00;22.90;99.80
13322;DHT22;6730;46.248;6.930;2022-10-17T09:33:48;23.80;97.70
13322;DHT22;6730;46.248;6.930;2022-10-17T09:36:22;23.00;97.10
13322;DHT22;6730;46.248;6.930;2022-10-17T09:38:54;21.90;97.80
13322;DHT22;6730;46.248;6.930;2022-10-17T09:41:21;21.60;98.90
13322;DHT22;6730;46.248;6.930;2022-10-17T09:43:48;21.40;98.40
13322;DHT22;6730;46.248;6.930;2022-10-17T09:46:28;21.40;99.90
13322;DHT22;6730;46.248;6.930;2022-10-17T09:49:17;21.50;99.10
13322;DHT22;6730;46.248;6.930;2022-10-17T09:51:44;21.10;98.80
13322;DHT22;6730;46.248;6.930;2022-10-17T09:54:21;21.20;99.70
13322;DHT22;6730;46.248;6.930;2022-10-17T09:57:03;21.80;99.80
13322;DHT22;6730;46.248;6.930;2022-10-17T10:02:18;22.20;98.10
13322;DHT22;6730;46.248;6.930;2022-10-17T10:07:17;23.50;99.10
13322;DHT22;6730;46.248;6.930;2022-10-17T10:09:46;23.80;97.10
13322;DHT22;6730;46.248;6.930;2022-10-17T10:12:33;23.30;97.30
13322;DHT22;6730;46.248;6.930;2022-10-17T10:14:59;23.10;97.30
13322;DHT22;6730;46.248;6.930;2022-10-17T10:17:37;23.80;98.90
13322;DHT22;6730;46.248;6.930;2022-10-17T10:20:24;24.10;98.00
13322;DHT22;6730;46.248;6.930;2022-10-17T10:23:20;23.30;96.40
13322;DHT22;6730;46.248;6.930;2022-10-17T10:25:58;22.90;98.00
13322;DHT22;6730;46.248;6.930;2022-10-17T10:28:32;23.60;97.80
13322;DHT22;6730;46.248;6.930;2022-10-17T10:31:02;24.10;97.70
13322;DHT22;6730;46.248;6.930;2022-10-17T10:33:30;24.20;95.10
13322;DHT22;6730;46.248;6.930;2022-10-17T10:36:01;23.90;96.00
13322;DHT22;6730;46.248;6.930;2022-10-17T10:38:29;24.10;95.40
13322;DHT22;6730;46.248;6.930;2022-10-17T10:41:07;24.50;96.70
13322;DHT22;6730;46.248;6.930;2022-10-17T10:43:44;23.80;95.70
13322;DHT22;6730;46.248;6.930;2022-10-17T10:46:26;23.40;96.90
13322;DHT22;6730;46.248;6.930;2022-10-17T10:48:56;22.80;96.60
13322;DHT22;6730;46.248;6.930;2022-10-17T10:51:33;22.90;95.70
13322;DHT22;6730;46.248;6.930;2022-10-17T10:56:57;22.70;97.00
13322;DHT22;6730;46.248;6.930;2022-10-17T11:04:51;23.00;96.70
13322;DHT22;6730;46.248;6.930;2022-10-17T11:07:34;22.80;98.20
13322;DHT22;6730;46.248;6.930;2022-10-17T11:10:36;22.70;97.10
13322;DHT22;6730;46.248;6.930;2022-10-17T11:13:12;22.90;98.00
13322;DHT22;6730;46.248;6.930;2022-10-17T11:15:52;23.40;95.90
13322;DHT22;6730;46.248;6.930;2022-10-17T11:18:27;23.60;94.70
13322;DHT22;6730;46.248;6.930;2022-10-17T11:21:15;22.80;96.60
13322;DHT22;6730;46.248;6.930;2022-10-17T11:23:47;23.10;96.40
13322;DHT22;6730;46.248;6.930;2022-10-17T11:26:23;23.40;97.30
13322;DHT22;6730;46.248;6.930;2022-10-17T11:29:01;23.70;95.20
13322;DHT22;6730;46.248;6.930;2022-10-17T11:31:32;23.80;96.50
13322;DHT22;6730;46.248;6.930;2022-10-17T11:34:06;23.80;96.20
13322;DHT22;6730;46.248;6.930;2022-10-17T11:36:38;24.10;96.30
13322;DHT22;6730;46.248;6.930;2022-10-17T11:39:17;23.70;95.30
13322;DHT22;6730;46.248;6.930;2022-10-17T11:42:06;23.20;96.50
13322;DHT22;6730;46.248;6.930;2022-10-17T11:44:39;23.30;96.20
13322;DHT22;6730;46.248;6.930;2022-10-17T11:47:28;23.30;95.60
13322;DHT22;6730;46.248;6.930;2022-10-17T11:50:05;22.70;96.00
13322;DHT22;6730;46.248;6.930;2022-10-17T11:52:40;21.60;96.60
13322;DHT22;6730;46.248;6.930;2022-10-17T11:55:21;21.30;97.30
13322;DHT22;6730;46.248;6.930;2022-10-17T11:57:50;21.10;97.10
13322;DHT22;6730;46.248;6.930;2022-10-17T12:03:16;21.30;98.00
13322;DHT22;6730;46.248;6.930;2022-10-17T12:14:46;21.00;97.90
13322;DHT22;6730;46.248;6.930;2022-10-17T12:17:43;20.80;97.80
13322;DHT22;6730;46.248;6.930;2022-10-17T12:25:37;21.00;99.80
13322;DHT22;6730;46.248;6.930;2022-10-17T12:28:19;21.30;98.50
13322;DHT22;6730;46.248;6.930;2022-10-17T12:33:17;20.90;99.40
13322;DHT22;6730;46.248;6.930;2022-10-17T12:35:48;20.60;99.80
13322;DHT22;6730;46.248;6.930;2022-10-17T12:38:23;20.60;99.50
13322;DHT22;6730;46.248;6.930;2022-10-17T12:40:51;20.60;99.90
13322;DHT22;6730;46.248;6.930;2022-10-17T12:45:52;20.40;99.10
13322;DHT22;6730;46.248;6.930;2022-10-17T12:53:46;20.00;99.90
13322;DHT22;6730;46.248;6.930;2022-10-17T12:56:17;20.20;99.90
13322;DHT22;6730;46.248;6.930;2022-10-17T12:58:48;20.30;99.90
13322;DHT22;6730;46.248;6.930;2022-10-17T13:01:36;20.40;99.90
13322;DHT22;6730;46.248;6.930;2022-10-17T13:04:02;20.30;99.90
13322;DHT22;6730;46.248;6.930;2022-10-17T13:06:32;20.10;99.90
13322;DHT22;6730;46.248;6.930;2022-10-17T13:09:08;19.90;99.90
13322;DHT22;6730;46.248;6.930;2022-10-17T13:11:41;19.70;99.90
13322;DHT22;6730;46.248;6.930;2022-10-17T13:14:15;19.50;99.90
13322;DHT22;6730;46.248;6.930;2022-10-17T13:17:02;19.50;99.90
13322;DHT22;6730;46.248;6.930;2022-10-17T13:19:31;19.40;99.90
13322;DHT22;6730;46.248;6.930;2022-10-17T13:22:12;19.50;99.90
13322;DHT22;6730;46.248;6.930;2022-10-17T13:24:40;19.60;99.90
13322;DHT22;6730;46.248;6.930;2022-10-17T13:29:49;19.40;99.90
13322;DHT22;6730;46.248;6.930;2022-10-17T13:32:15;19.40;99.90
13322;DHT22;6730;46.248;6.930;2022-10-17T13:34:41;19.70;99.90
13322;DHT22;6730;46.248;6.930;2022-10-17T13:37:10;20.00;99.90
13322;DHT22;6730;46.248;6.930;2022-10-17T13:39:40;20.10;99.90
13322;DHT22;6730;46.248;6.930;2022-10-17T13:42:36;20.30;99.90
13322;DHT22;6730;46.248;6.930;2022-10-17T13:45:00;20.50;99.90
13322;DHT22;6730;46.248;6.930;2022-10-17T13:47:28;20.80;99.90
13322;DHT22;6730;46.248;6.930;2022-10-17T13:49:55;20.90;99.80
13322;DHT22;6730;46.248;6.930;2022-10-17T13:52:25;20.90;99.90
13322;DHT22;6730;46.248;6.930;2022-10-17T13:54:52;20.80;99.90
13322;DHT22;6730;46.248;6.930;2022-10-17T13:57:26;20.50;99.90
13322;DHT22;6730;46.248;6.930;2022-10-17T13:59:58;20.00;99.90
13322;DHT22;6730;46.248;6.930;2022-10-17T14:02:29;20.00;99.90
13322;DHT22;6730;46.248;6.930;2022-10-17T14:04:59;20.40;99.90
13322;DHT22;6730;46.248;6.930;2022-10-17T14:10:30;20.30;99.90
13322;DHT22;6730;46.248;6.930;2022-10-17T14:12:57;19.90;99.90
13322;DHT22;6730;46.248;6.930;2022-10-17T14:15:26;19.70;99.90
13322;DHT22;6730;46.248;6.930;2022-10-17T14:18:07;19.70;99.90
13322;DHT22;6730;46.248;6.930;2022-10-17T14:20:36;19.70;99.90
13322;DHT22;6730;46.248;6.930;2022-10-17T14:23:02;19.90;99.90
13322;DHT22;6730;46.248;6.930;2022-10-17T14:25:38;20.20;99.90
13322;DHT22;6730;46.248;6.930;2022-10-17T14:30:38;20.80;99.90
13322;DHT22;6730;46.248;6.930;2022-10-17T14:33:26;20.80;99.90
13322;DHT22;6730;46.248;6.930;2022-10-17T14:35:54;20.60;99.90
13322;DHT22;6730;46.248;6.930;2022-10-17T14:38:20;20.80;99.90
13322;DHT22;6730;46.248;6.930;2022-10-17T14:40:51;20.90;99.90
13322;DHT22;6730;46.248;6.930;2022-10-17T14:43:24;20.80;99.90
13322;DHT22;6730;46.248;6.930;2022-10-17T14:45:50;20.60;99.90
13322;DHT22;6730;46.248;6.930;2022-10-17T14:48:19;20.60;99.90
13322;DHT22;6730;46.248;6.930;2022-10-17T14:51:09;20.80;99.90
13322;DHT22;6730;46.248;6.930;2022-10-17T14:53:36;20.80;99.90
13322;DHT22;6730;46.248;6.930;2022-10-17T14:56:17;20.60;99.90
13322;DHT22;6730;46.248;6.930;2022-10-17T14:58:44;20.60;99.90
13322;DHT22;6730;46.248;6.930;2022-10-17T15:01:10;20.40;99.90
13322;DHT22;6730;46.248;6.930;2022-10-17T15:03:35;20.60;99.90
13322;DHT22;6730;46.248;6.930;2022-10-17T15:08:41;20.10;99.90
13322;DHT22;6730;46.248;6.930;2022-10-17T15:11:09;19.90;99.90
13322;DHT22;6730;46.248;6.930;2022-10-17T15:13:35;19.70;99.90
13322;DHT22;6730;46.248;6.930;2022-10-17T15:16:01;19.50;99.90
13322;DHT22;6730;46.248;6.930;2022-10-17T15:18:27;19.30;99.90
13322;DHT22;6730;46.248;6.930;2022-10-17T15:20:53;19.50;99.90
13322;DHT22;6730;46.248;6.930;2022-10-17T15:23:18;19.60;99.90
13322;DHT22;6730;46.248;6.930;2022-10-17T15:25:45;19.60;99.90
13322;DHT22;6730;46.248;6.930;2022-10-17T15:28:12;19.60;99.90
13322;DHT22;6730;46.248;6.930;2022-10-17T15:30:37;19.40;99.90
13322;DHT22;6730;46.248;6.930;2022-10-17T15:33:03;19.20;99.90
13322;DHT22;6730;46.248;6.930;2022-10-17T15:35:29;19.00;99.90
13322;DHT22;6730;46.248;6.930;2022-10-17T15:37:55;19.00;99.90
13322;DHT22;6730;46.248;6.930;2022-10-17T15:40:27;19.00;99.90
13322;DHT22;6730;46.248;6.930;2022-10-17T15:42:54;18.90;99.90
13322;DHT22;6730;46.248;6.930;2022-10-17T15:45:21;18.90;99.90
13322;DHT22;6730;46.248;6.930;2022-10-17T15:47:55;19.00;99.90
13322;DHT22;6730;46.248;6.930;2022-10-17T15:50:22;19.20;99.90
13322;DHT22;6730;46.248;6.930;2022-10-17T15:52:51;19.10;99.90
13322;DHT22;6730;46.248;6.930;2022-10-17T15:55:17;19.10;99.90
13322;DHT22;6730;46.248;6.930;2022-10-17T15:57:44;19.00;99.90
13322;DHT22;6730;46.248;6.930;2022-10-17T16:00:22;18.90;99.90
13322;DHT22;6730;46.248;6.930;2022-10-17T16:02:48;18.70;99.90
13322;DHT22;6730;46.248;6.930;2022-10-17T16:05:17;18.70;99.90
13322;DHT22;6730;46.248;6.930;2022-10-17T16:07:43;18.70;99.90
13322;DHT22;6730;46.248;6.930;2022-10-17T16:10:13;18.70;99.90
13322;DHT22;6730;46.248;6.930;2022-10-17T16:12:42;18.70;99.90
13322;DHT22;6730;46.248;6.930;2022-10-17T16:15:20;18.80;99.90
13322;DHT22;6730;46.248;6.930;2022-10-17T16:17:50;18.80;99.90
13322;DHT22;6730;46.248;6.930;2022-10-17T16:20:16;18.70;99.90
13322;DHT22;6730;46.248;6.930;2022-10-17T16:22:43;18.50;99.90
13322;DHT22;6730;46.248;6.930;2022-10-17T16:25:22;18.60;99.90
13322;DHT22;6730;46.248;6.930;2022-10-17T16:27:50;18.60;99.90
13322;DHT22;6730;46.248;6.930;2022-10-17T16:30:17;18.50;99.90
13322;DHT22;6730;46.248;6.930;2022-10-17T16:32:43;18.50;99.90
13322;DHT22;6730;46.248;6.930;2022-10-17T16:35:13;18.30;99.90
13322;DHT22;6730;46.248;6.930;2022-10-17T16:37:40;18.40;99.90
13322;DHT22;6730;46.248;6.930;2022-10-17T16:40:06;18.30;99.90
13322;DHT22;6730;46.248;6.930;2022-10-17T16:42:32;18.10;99.90
13322;DHT22;6730;46.248;6.930;2022-10-17T16:44:58;18.00;99.90
13322;DHT22;6730;46.248;6.930;2022-10-17T16:47:24;18.00;99.90
13322;DHT22;6730;46.248;6.930;2022-10-17T16:49:49;17.90;99.90
13322;DHT22;6730;46.248;6.930;2022-10-17T16:52:15;17.80;99.90
13322;DHT22;6730;46.248;6.930;2022-10-17T16:54:40;17.80;99.90
13322;DHT22;6730;46.248;6.930;2022-10-17T16:57:06;17.70;99.90
13322;DHT22;6730;46.248;6.930;2022-10-17T16:59:32;17.80;99.90
13322;DHT22;6730;46.248;6.930;2022-10-17T17:01:58;17.80;99.90
13322;DHT22;6730;46.248;6.930;2022-10-17T17:04:24;17.80;99.90
13322;DHT22;6730;46.248;6.930;2022-10-17T17:06:49;17.70;99.90
13322;DHT22;6730;46.248;6.930;2022-10-17T17:09:15;17.60;99.90
13322;DHT22;6730;46.248;6.930;2022-10-17T17:11:41;17.50;99.90
13322;DHT22;6730;46.248;6.930;2022-10-17T17:14:07;17.50;99.90
13322;DHT22;6730;46.248;6.930;2022-10-17T17:16:33;17.50;99.90
13322;DHT22;6730;46.248;6.930;2022-10-17T17:19:01;17.50;99.90
13322;DHT22;6730;46.248;6.930;2022-10-17T17:21:27;17.50;99.90
13322;DHT22;6730;46.248;6.930;2022-10-17T17:23:54;17.40;99.90
13322;DHT22;6730;46.248;6.930;2022-10-17T17:26:23;17.30;99.90
13322;DHT22;6730;46.248;6.930;2022-10-17T17:28:49;17.20;99.90
13322;DHT22;6730;46.248;6.930;2022-10-17T17:31:21;17.20;99.90
13322;DHT22;6730;46.248;6.930;2022-10-17T17:33:47;17.20;99.90
13322;DHT22;6730;46.248;6.930;2022-10-17T17:36:16;17.20;99.90
13322;DHT22;6730;46.248;6.930;2022-10-17T17:38:44;17.20;99.90
13322;DHT22;6730;46.248;6.930;2022-10-17T17:41:11;17.20;99.90
13322;DHT22;6730;46.248;6.930;2022-10-17T17:43:38;17.30;99.90
13322;DHT22;6730;46.248;6.930;2022-10-17T17:46:04;17.20;99.90
13322;DHT22;6730;46.248;6.930;2022-10-17T17:48:30;17.10;99.90
13322;DHT22;6730;46.248;6.930;2022-10-17T17:50:55;17.10;99.90